Time;durP1;ratioP1;P1;durP2;ratioP2;P2;SDS_P1;SDS_P2;PMS_P1;PMS_P2;Temp;Humidity;BMP_temperature;BMP_pressure;BME280_temperature;BME280_humidity;BME280_pressure;Samples;Min_cycle;Max_cycle;Signal;HPM_P1;HPM_P2
2022/09/16 00:01:00;;;;;;;3.13;2.83;;;14.10;99.90;;;;;;5102110;28;20452;-82
2022/09/16 00:03:27;;;;;;;3.47;3.17;;;14.20;99.90;;;;;;5091367;28;20524;-82
2022/09/16 00:05:54;;;;;;;3.40;3.20;;;14.20;99.90;;;;;;5100036;28;20507;-82
2022/09/16 00:08:22;;;;;;;3.00;2.70;;;14.20;99.90;;;;;;5100350;28;20847;-83
2022/09/16 00:10:51;;;;;;;3.30;3.10;;;14.20;99.90;;;;;;5103730;28;20477;-81
2022/09/16 00:13:18;;;;;;;5.07;3.23;;;14.20;99.90;;;;;;5105476;27;20457;-82
2022/09/16 00:15:47;;;;;;;2.87;2.67;;;14.20;99.90;;;;;;5105156;28;20499;-82
2022/09/16 00:18:14;;;;;;;3.90;2.53;;;14.20;99.90;;;;;;5105361;28;21114;-82
2022/09/16 00:20:46;;;;;;;6.43;3.50;;;14.10;99.90;;;;;;5103302;28;20930;-81
2022/09/16 00:23:13;;;;;;;4.17;3.60;;;14.10;99.90;;;;;;5099546;28;20531;-82
2022/09/16 00:25:40;;;;;;;3.20;2.67;;;14.20;99.90;;;;;;5102318;28;20451;-81
2022/09/16 00:28:08;;;;;;;3.37;2.30;;;14.10;99.90;;;;;;5106996;28;21235;-82
2022/09/16 00:30:35;;;;;;;2.77;2.57;;;14.10;99.90;;;;;;5096739;28;20570;-81
2022/09/16 00:33:02;;;;;;;2.80;2.60;;;14.10;99.90;;;;;;5105403;28;20546;-82
2022/09/16 00:35:29;;;;;;;3.23;2.93;;;14.10;99.90;;;;;;5108282;27;20536;-81
2022/09/16 00:37:56;;;;;;;2.60;2.40;;;14.10;99.90;;;;;;5098630;28;20844;-83
2022/09/16 00:40:23;;;;;;;3.57;2.40;;;14.10;99.90;;;;;;5099534;28;20997;-82
2022/09/16 00:42:50;;;;;;;3.30;2.27;;;14.00;99.90;;;;;;5098023;28;20515;-82
2022/09/16 00:45:21;;;;;;;3.40;2.90;;;14.00;99.90;;;;;;5106484;28;20455;-81
2022/09/16 00:47:52;;;;;;;3.83;3.43;;;14.10;99.90;;;;;;5097335;28;21035;-81
2022/09/16 00:50:24;;;;;;;3.40;3.10;;;14.10;99.90;;;;;;5104796;28;20527;-83
2022/09/16 00:52:53;;;;;;;3.33;3.10;;;14.10;99.90;;;;;;5098620;28;20443;-83
2022/09/16 00:55:26;;;;;;;2.93;2.73;;;14.00;99.90;;;;;;5103378;28;21213;-83
2022/09/16 00:57:56;;;;;;;3.10;2.80;;;14.00;99.90;;;;;;5104084;28;20886;-82
2022/09/16 01:00:25;;;;;;;6.33;3.00;;;14.00;99.90;;;;;;5096816;28;20535;-82
2022/09/16 01:02:52;;;;;;;4.63;2.53;;;13.90;99.90;;;;;;5104626;28;20952;-82
2022/09/16 01:05:22;;;;;;;2.47;2.37;;;13.90;99.90;;;;;;5102064;28;20517;-83
2022/09/16 01:07:51;;;;;;;2.97;2.77;;;13.80;99.90;;;;;;5103785;28;20446;-82
2022/09/16 01:10:21;;;;;;;5.37;3.27;;;13.80;99.90;;;;;;5106451;28;20484;-81
2022/09/16 01:12:52;;;;;;;3.83;3.53;;;13.70;99.90;;;;;;5104857;28;20963;-82
2022/09/16 01:15:19;;;;;;;4.80;2.37;;;13.60;99.90;;;;;;5105697;28;20501;-82
2022/09/16 01:17:56;;;;;;;3.43;3.13;;;13.40;99.90;;;;;;5100293;28;20449;-84
2022/09/16 01:20:52;;;;;;;3.83;3.53;;;13.40;99.90;;;;;;5103132;28;20481;-84
2022/09/16 01:23:59;;;;;;;3.70;3.40;;;13.30;99.90;;;;;;5104852;28;21001;-83
2022/09/16 01:26:56;;;;;;;4.00;3.70;;;13.30;99.90;;;;;;5093553;28;21138;-82
2022/09/16 01:29:49;;;;;;;5.73;3.30;;;13.30;99.90;;;;;;5104952;28;20558;-83
2022/09/16 01:32:23;;;;;;;5.20;3.47;;;13.20;99.90;;;;;;5085343;28;20453;-82
2022/09/16 01:35:01;;;;;;;2.70;2.47;;;13.30;99.90;;;;;;5108747;27;20470;-82
2022/09/16 01:37:40;;;;;;;5.73;3.30;;;13.20;99.90;;;;;;5106135;27;20470;-83
2022/09/16 01:40:13;;;;;;;2.87;2.43;;;13.20;99.90;;;;;;5100925;28;20484;-82
2022/09/16 01:42:47;;;;;;;5.90;2.57;;;13.20;99.90;;;;;;5107417;28;20494;-84
2022/09/16 01:45:20;;;;;;;2.83;2.10;;;13.20;99.90;;;;;;5100404;28;20558;-83
2022/09/16 01:47:56;;;;;;;3.47;3.27;;;13.20;99.90;;;;;;5102494;28;20447;-82
2022/09/16 01:50:27;;;;;;;6.73;4.37;;;13.30;99.90;;;;;;5103354;28;20545;-83
2022/09/16 01:53:02;;;;;;;3.33;3.13;;;13.30;99.90;;;;;;5101946;28;20451;-84
2022/09/16 01:55:35;;;;;;;7.17;3.13;;;13.30;99.90;;;;;;5103584;28;20529;-84
2022/09/16 01:58:08;;;;;;;4.03;3.73;;;13.30;99.90;;;;;;5103311;28;20495;-82
2022/09/16 02:00:35;;;;;;;4.60;3.70;;;13.20;99.90;;;;;;5099669;28;20478;-84
2022/09/16 02:03:07;;;;;;;4.10;3.80;;;13.20;99.90;;;;;;5105981;28;21200;-82
2022/09/16 02:05:37;;;;;;;7.27;4.80;;;13.20;99.90;;;;;;5105105;28;20620;-84
2022/09/16 02:08:09;;;;;;;3.83;3.23;;;13.10;99.90;;;;;;5114408;28;20442;-83
2022/09/16 02:10:41;;;;;;;4.33;3.93;;;13.10;99.90;;;;;;5127059;28;21524;-84
2022/09/16 02:13:14;;;;;;;3.73;3.10;;;13.10;99.90;;;;;;5125201;28;20447;-81
2022/09/16 02:15:44;;;;;;;6.30;4.17;;;13.10;99.90;;;;;;5124050;28;20446;-82
2022/09/16 02:18:18;;;;;;;3.30;2.93;;;13.20;99.90;;;;;;5109636;28;20924;-83
2022/09/16 02:20:47;;;;;;;9.33;3.73;;;13.20;99.90;;;;;;5107122;28;20464;-82
2022/09/16 02:23:18;;;;;;;5.00;4.30;;;13.30;99.90;;;;;;5103074;28;20447;-81
2022/09/16 02:25:48;;;;;;;4.60;4.13;;;13.30;99.90;;;;;;5104836;28;20446;-83
2022/09/16 02:28:19;;;;;;;3.80;3.50;;;13.30;99.90;;;;;;5105009;28;20454;-82
2022/09/16 02:30:51;;;;;;;6.10;4.00;;;13.40;99.90;;;;;;5098860;28;20493;-84
2022/09/16 02:33:22;;;;;;;5.43;3.27;;;13.30;99.90;;;;;;5102484;28;20449;-82
2022/09/16 02:35:54;;;;;;;3.63;3.30;;;13.30;99.90;;;;;;5097759;28;20504;-83
2022/09/16 02:38:24;;;;;;;3.20;3.00;;;13.40;99.90;;;;;;5103083;28;20445;-82
2022/09/16 02:40:55;;;;;;;4.40;4.00;;;13.30;99.90;;;;;;5105551;28;20941;-83
2022/09/16 02:43:22;;;;;;;3.90;3.63;;;13.20;99.90;;;;;;5103877;28;20534;-81
2022/09/16 02:45:59;;;;;;;4.30;4.00;;;13.00;99.90;;;;;;5102658;28;20449;-82
2022/09/16 02:48:33;;;;;;;4.60;3.80;;;12.80;99.90;;;;;;5098184;28;20476;-83
2022/09/16 02:51:09;;;;;;;3.07;2.87;;;12.70;99.90;;;;;;5099482;28;20509;-84
2022/09/16 02:53:44;;;;;;;2.93;2.73;;;12.60;99.90;;;;;;5099142;28;20449;-83
2022/09/16 02:56:18;;;;;;;4.10;3.30;;;12.50;99.90;;;;;;5102902;28;20860;-82
2022/09/16 02:58:45;;;;;;;5.00;3.67;;;12.50;99.90;;;;;;5102464;28;20991;-82
2022/09/16 03:01:13;;;;;;;3.73;3.30;;;12.70;99.90;;;;;;5093645;28;20549;-82
2022/09/16 03:03:42;;;;;;;5.50;3.90;;;12.60;99.90;;;;;;5097658;28;20986;-82
2022/09/16 03:06:25;;;;;;;3.77;3.47;;;12.70;99.90;;;;;;5102693;28;21035;-83
2022/09/16 03:08:54;;;;;;;4.07;3.17;;;12.70;99.90;;;;;;5105103;28;20455;-82
2022/09/16 03:11:33;;;;;;;4.17;3.87;;;12.80;99.90;;;;;;5100848;28;20485;-83
2022/09/16 03:14:17;;;;;;;5.33;4.00;;;12.80;99.90;;;;;;5102137;28;20448;-82
2022/09/16 03:16:54;;;;;;;4.40;4.10;;;12.90;99.90;;;;;;5098559;28;20517;-83
2022/09/16 03:19:31;;;;;;;5.27;4.77;;;12.90;99.90;;;;;;5102145;28;20475;-82
2022/09/16 03:22:06;;;;;;;7.17;5.00;;;13.00;99.90;;;;;;5104018;28;20991;-83
2022/09/16 03:24:45;;;;;;;5.50;5.00;;;13.00;99.90;;;;;;5101236;28;20473;-83
2022/09/16 03:27:16;;;;;;;5.20;4.70;;;13.00;99.90;;;;;;5099253;28;20448;-82
2022/09/16 03:29:49;;;;;;;5.60;5.10;;;13.00;99.90;;;;;;5098486;28;20469;-83
2022/09/16 03:32:20;;;;;;;10.80;4.40;;;13.00;99.90;;;;;;5104638;28;20823;-83
2022/09/16 03:34:53;;;;;;;4.40;4.00;;;12.90;99.90;;;;;;5102493;28;20496;-82
2022/09/16 03:37:23;;;;;;;5.07;4.67;;;12.80;99.90;;;;;;5102492;28;20462;-83
2022/09/16 03:39:52;;;;;;;5.10;4.60;;;12.80;99.90;;;;;;5103580;28;21049;-82
2022/09/16 03:42:20;;;;;;;4.43;4.00;;;12.80;99.90;;;;;;5102324;28;20499;-82
2022/09/16 03:44:48;;;;;;;4.87;4.30;;;12.90;99.90;;;;;;5102047;28;20443;-84
2022/09/16 03:47:16;;;;;;;5.00;4.53;;;12.90;99.90;;;;;;5107253;28;20467;-83
2022/09/16 03:49:43;;;;;;;6.40;4.60;;;12.90;99.90;;;;;;5107622;28;20451;-84
2022/09/16 03:52:11;;;;;;;4.87;4.53;;;12.90;99.90;;;;;;5106939;28;20550;-82
2022/09/16 03:54:39;;;;;;;4.37;4.10;;;12.90;99.90;;;;;;5107034;28;20514;-82
2022/09/16 03:57:06;;;;;;;5.00;4.60;;;12.90;99.90;;;;;;5100923;28;20524;-84
2022/09/16 03:59:33;;;;;;;10.23;4.43;;;12.80;99.90;;;;;;5108514;28;20461;-83
2022/09/16 04:02:00;;;;;;;5.70;4.10;;;12.90;99.90;;;;;;5107616;27;20471;-83
2022/09/16 04:04:27;;;;;;;4.47;4.10;;;13.00;99.90;;;;;;5097594;28;20502;-82
2022/09/16 04:06:54;;;;;;;4.27;3.97;;;13.00;99.90;;;;;;5099738;28;20518;-81
2022/09/16 04:09:22;;;;;;;4.27;3.87;;;13.00;99.90;;;;;;5101767;27;20469;-84
2022/09/16 04:11:49;;;;;;;5.07;4.30;;;12.90;99.90;;;;;;5095630;28;20488;-84
2022/09/16 04:14:16;;;;;;;5.77;2.93;;;12.80;99.90;;;;;;5094617;28;20458;-84
2022/09/16 04:16:43;;;;;;;9.80;4.70;;;12.70;99.90;;;;;;5108312;27;20449;-83
2022/09/16 04:19:11;;;;;;;6.37;3.70;;;12.60;99.90;;;;;;5103937;28;20948;-82
2022/09/16 04:21:39;;;;;;;4.23;3.93;;;12.40;99.90;;;;;;5105420;28;20999;-82
2022/09/16 04:24:06;;;;;;;3.20;3.00;;;12.40;99.90;;;;;;5106142;28;20514;-82
2022/09/16 04:26:34;;;;;;;3.83;3.23;;;12.40;99.90;;;;;;5107212;28;20842;-82
2022/09/16 04:29:01;;;;;;;4.10;3.80;;;12.30;99.90;;;;;;5098950;28;21372;-82
2022/09/16 04:31:29;;;;;;;5.30;4.63;;;12.30;99.90;;;;;;5100529;28;20539;-82
2022/09/16 04:33:56;;;;;;;5.90;4.57;;;12.30;99.90;;;;;;5104433;28;20549;-82
2022/09/16 04:36:23;;;;;;;5.73;4.53;;;12.30;99.90;;;;;;5099279;28;20491;-84
2022/09/16 04:38:50;;;;;;;5.10;3.60;;;12.30;99.90;;;;;;5104897;28;20469;-82
2022/09/16 04:41:18;;;;;;;5.73;5.20;;;12.40;99.90;;;;;;5098851;28;20469;-83
2022/09/16 04:43:50;;;;;;;7.30;4.43;;;12.40;99.90;;;;;;5100577;28;20878;-82
2022/09/16 04:46:17;;;;;;;5.30;4.90;;;12.50;99.90;;;;;;5101115;28;20546;-83
2022/09/16 04:48:46;;;;;;;7.70;6.20;;;12.50;99.90;;;;;;5094177;28;20508;-83
2022/09/16 04:51:13;;;;;;;6.87;5.33;;;12.60;99.90;;;;;;5103013;28;20474;-83
2022/09/16 04:53:42;;;;;;;9.23;5.67;;;12.70;99.90;;;;;;5095350;28;20438;-83
2022/09/16 04:56:13;;;;;;;8.07;7.27;;;12.80;99.90;;;;;;5095533;28;20573;-81
2022/09/16 04:58:41;;;;;;;8.70;7.80;;;12.90;99.90;;;;;;5100531;28;20458;-83
2022/09/16 05:01:12;;;;;;;9.53;5.87;;;12.90;99.90;;;;;;5100007;28;20469;-84
2022/09/16 05:03:40;;;;;;;18.40;12.17;;;12.80;99.90;;;;;;5101228;28;20543;-85
2022/09/16 05:06:09;;;;;;;10.10;8.70;;;12.90;99.90;;;;;;5099544;28;20522;-86
2022/09/16 05:08:37;;;;;;;7.43;6.07;;;13.00;99.90;;;;;;5090316;28;20507;-85
2022/09/16 05:11:06;;;;;;;8.33;5.30;;;12.90;99.90;;;;;;5095131;28;20489;-84
2022/09/16 05:13:33;;;;;;;7.00;6.40;;;13.00;99.90;;;;;;5103886;28;20454;-85
2022/09/16 05:16:06;;;;;;;7.00;6.40;;;13.10;99.90;;;;;;5095913;28;20462;-84
2022/09/16 05:18:34;;;;;;;6.63;6.03;;;13.10;99.90;;;;;;5109368;28;20748;-86
2022/09/16 05:21:03;;;;;;;7.50;6.70;;;13.10;99.90;;;;;;5112893;28;20457;-85
2022/09/16 05:23:30;;;;;;;9.70;6.57;;;13.00;99.90;;;;;;5109061;28;20485;-85
2022/09/16 05:26:03;;;;;;;9.10;6.73;;;13.10;99.90;;;;;;5105515;28;20456;-84
2022/09/16 05:28:30;;;;;;;8.17;7.37;;;13.10;99.90;;;;;;5107640;28;20440;-85
2022/09/16 05:31:09;;;;;;;8.67;7.90;;;13.20;99.90;;;;;;5065756;28;1137678;-84
2022/09/16 05:33:37;;;;;;;9.13;7.47;;;13.20;99.90;;;;;;5103125;28;20248;-84
2022/09/16 05:36:06;;;;;;;9.90;8.73;;;13.30;99.90;;;;;;5099107;28;20469;-84
2022/09/16 05:38:33;;;;;;;9.33;8.43;;;13.30;99.90;;;;;;5112159;27;20445;-84
2022/09/16 05:41:00;;;;;;;8.53;7.67;;;13.30;99.90;;;;;;5100819;28;20450;-84
2022/09/16 05:43:27;;;;;;;8.93;8.00;;;13.30;99.90;;;;;;5101205;28;20511;-84
2022/09/16 05:45:55;;;;;;;11.00;7.80;;;13.30;99.90;;;;;;5104972;28;20973;-84
2022/09/16 05:48:22;;;;;;;8.50;7.70;;;13.30;99.90;;;;;;5099053;28;20461;-84
2022/09/16 05:50:55;;;;;;;8.73;8.00;;;13.30;99.90;;;;;;5103404;28;21155;-85
2022/09/16 05:53:23;;;;;;;12.27;10.57;;;13.30;99.90;;;;;;5102497;28;20480;-85
2022/09/16 05:55:58;;;;;;;8.50;7.70;;;13.40;99.90;;;;;;5096118;28;20462;-84
2022/09/16 05:58:25;;;;;;;8.30;7.50;;;13.40;99.90;;;;;;5089974;28;20972;-84
2022/09/16 06:00:57;;;;;;;8.93;8.13;;;13.50;99.90;;;;;;5096462;28;20546;-85
2022/09/16 06:03:25;;;;;;;10.30;8.83;;;13.60;99.90;;;;;;5106344;28;20461;-85
2022/09/16 06:05:59;;;;;;;9.03;8.17;;;13.70;99.90;;;;;;5104286;28;20455;-88
2022/09/16 06:08:27;;;;;;;9.40;8.40;;;13.60;99.90;;;;;;5098358;28;20447;-87
2022/09/16 06:10:54;;;;;;;9.03;8.10;;;13.60;99.90;;;;;;5100653;28;20530;-85
2022/09/16 06:13:21;;;;;;;9.40;8.43;;;13.60;99.90;;;;;;5087861;27;20571;-85
2022/09/16 06:15:50;;;;;;;8.20;7.00;;;13.70;99.90;;;;;;5093878;28;20496;-86
2022/09/16 06:18:17;;;;;;;7.53;6.83;;;13.80;99.90;;;;;;5090061;28;20454;-85
2022/09/16 06:20:45;;;;;;;7.53;6.83;;;13.80;99.90;;;;;;5106780;28;20490;-87
2022/09/16 06:23:13;;;;;;;6.80;6.30;;;14.00;99.90;;;;;;5098783;27;20470;-87
2022/09/16 06:25:40;;;;;;;6.90;6.30;;;14.10;99.90;;;;;;5100686;28;21266;-86
2022/09/16 06:28:08;;;;;;;9.33;8.43;;;14.20;99.90;;;;;;5092242;28;20460;-85
2022/09/16 06:30:35;;;;;;;9.73;6.33;;;14.20;99.90;;;;;;5103088;28;20492;-83
2022/09/16 06:33:02;;;;;;;7.63;6.30;;;14.20;99.90;;;;;;5100945;28;21018;-83
2022/09/16 06:35:29;;;;;;;7.80;7.10;;;14.30;99.90;;;;;;5103670;28;20468;-83
2022/09/16 06:37:58;;;;;;;7.60;6.87;;;14.50;99.90;;;;;;5101655;28;21030;-84
2022/09/16 06:40:27;;;;;;;11.80;6.63;;;14.70;99.90;;;;;;5114614;27;20545;-84
2022/09/16 06:42:54;;;;;;;8.00;5.80;;;14.80;99.90;;;;;;5102470;27;21141;-84
2022/09/16 06:45:21;;;;;;;7.47;6.43;;;14.80;99.90;;;;;;5100805;28;20515;-83
2022/09/16 06:47:48;;;;;;;6.23;5.63;;;14.90;99.90;;;;;;5093684;28;20452;-83
2022/09/16 06:50:15;;;;;;;5.70;4.73;;;15.00;99.90;;;;;;5104194;28;20448;-83
2022/09/16 06:52:42;;;;;;;5.20;4.70;;;15.10;99.90;;;;;;5106439;28;20485;-84
2022/09/16 06:55:09;;;;;;;4.57;3.17;;;15.30;99.90;;;;;;5103298;28;20954;-84
2022/09/16 06:57:38;;;;;;;4.90;4.40;;;15.40;99.90;;;;;;5094913;28;20518;-82
2022/09/16 07:00:06;;;;;;;6.23;4.37;;;15.60;99.90;;;;;;5100719;28;20452;-83
2022/09/16 07:02:33;;;;;;;5.27;4.47;;;15.80;99.90;;;;;;5097011;28;20469;-83
2022/09/16 07:05:01;;;;;;;6.70;4.40;;;15.90;99.90;;;;;;5093543;28;20486;-82
2022/09/16 07:07:30;;;;;;;7.20;3.63;;;16.00;99.90;;;;;;5097677;28;20463;-82
2022/09/16 07:09:57;;;;;;;4.07;3.77;;;15.90;99.90;;;;;;5100706;28;20465;-83
2022/09/16 07:12:24;;;;;;;5.30;4.50;;;15.90;99.90;;;;;;5091726;28;20569;-82
2022/09/16 07:14:53;;;;;;;4.40;3.90;;;15.60;99.90;;;;;;5086968;28;20497;-83
2022/09/16 07:17:22;;;;;;;3.30;3.03;;;15.60;99.90;;;;;;5099914;28;20961;-83
2022/09/16 07:19:49;;;;;;;2.53;2.33;;;15.50;99.90;;;;;;5104047;28;20472;-83
2022/09/16 07:22:16;;;;;;;3.93;3.40;;;15.40;99.90;;;;;;5110207;28;20869;-84
2022/09/16 07:24:43;;;;;;;3.47;3.17;;;15.30;99.90;;;;;;5105980;27;21038;-85
2022/09/16 07:27:10;;;;;;;3.87;3.57;;;15.40;99.90;;;;;;5105049;28;20513;-82
2022/09/16 07:29:37;;;;;;;4.70;4.30;;;15.50;99.90;;;;;;5097666;28;20496;-84
2022/09/16 07:32:05;;;;;;;3.27;3.03;;;15.60;99.90;;;;;;5096067;28;20484;-83
2022/09/16 07:34:32;;;;;;;3.93;3.23;;;15.40;99.90;;;;;;5097830;27;20523;-83
2022/09/16 07:36:59;;;;;;;6.23;4.47;;;15.30;99.90;;;;;;5102128;27;20539;-84
2022/09/16 07:39:26;;;;;;;3.80;3.30;;;15.20;99.90;;;;;;5104825;27;20483;-84
2022/09/16 07:41:53;;;;;;;5.10;3.70;;;15.10;99.90;;;;;;5106622;28;20445;-84
2022/09/16 07:44:21;;;;;;;2.97;2.77;;;14.90;99.90;;;;;;5107374;28;20877;-83
2022/09/16 07:46:49;;;;;;;5.90;2.50;;;14.90;99.90;;;;;;5103988;28;20944;-85
2022/09/16 07:49:18;;;;;;;3.33;2.53;;;14.80;99.90;;;;;;5105509;28;20551;-85
2022/09/16 07:51:45;;;;;;;7.33;4.20;;;14.70;99.90;;;;;;5102158;28;20494;-84
2022/09/16 07:54:17;;;;;;;3.33;2.73;;;14.60;99.90;;;;;;5102505;28;20585;-85
2022/09/16 07:56:45;;;;;;;3.37;2.60;;;14.60;99.90;;;;;;5105482;28;20472;-84
2022/09/16 07:59:14;;;;;;;4.57;2.90;;;14.70;99.90;;;;;;5104605;28;20448;-86
2022/09/16 08:01:41;;;;;;;5.30;3.53;;;14.60;99.90;;;;;;5108107;28;20441;-85
2022/09/16 08:04:08;;;;;;;4.43;2.67;;;14.60;99.90;;;;;;5107577;28;20447;-83
2022/09/16 08:06:39;;;;;;;5.43;2.60;;;14.70;99.90;;;;;;5099599;28;20463;-83
2022/09/16 08:09:06;;;;;;;7.37;3.33;;;14.90;99.90;;;;;;5100585;28;20460;-82
2022/09/16 08:11:33;;;;;;;3.67;3.37;;;15.00;99.90;;;;;;5099776;28;20463;-83
2022/09/16 08:14:00;;;;;;;3.40;3.17;;;15.20;99.90;;;;;;5102383;28;20486;-85
2022/09/16 08:16:28;;;;;;;6.23;3.90;;;15.30;99.90;;;;;;5100474;28;20775;-84
2022/09/16 08:18:56;;;;;;;4.30;3.33;;;15.30;99.90;;;;;;5101463;28;20465;-82
2022/09/16 08:21:25;;;;;;;5.10;4.70;;;15.30;99.90;;;;;;5100594;28;20531;-83
2022/09/16 08:23:54;;;;;;;5.03;4.50;;;15.30;99.90;;;;;;5094283;28;20459;-82
2022/09/16 08:26:22;;;;;;;6.73;5.87;;;15.20;99.90;;;;;;5091988;28;20515;-83
2022/09/16 08:28:50;;;;;;;5.53;5.03;;;15.20;99.90;;;;;;5093621;28;20461;-83
2022/09/16 08:31:18;;;;;;;5.83;5.30;;;15.10;99.90;;;;;;5099926;28;20956;-84
2022/09/16 08:33:45;;;;;;;6.13;5.63;;;15.10;99.90;;;;;;5109958;27;20563;-84
2022/09/16 08:36:14;;;;;;;6.80;4.83;;;14.80;99.90;;;;;;5119914;27;20453;-82
2022/09/16 08:38:43;;;;;;;6.00;4.70;;;14.70;99.90;;;;;;5124568;28;20480;-83
2022/09/16 08:41:28;;;;;;;10.73;5.47;;;14.70;99.90;;;;;;5126634;28;20453;-83
2022/09/16 08:44:04;;;;;;;6.43;4.97;;;14.60;99.90;;;;;;5103506;28;20470;-83
2022/09/16 08:46:39;;;;;;;5.63;5.10;;;14.60;99.90;;;;;;5105205;28;20500;-83
2022/09/16 08:49:16;;;;;;;7.30;5.60;;;14.50;99.90;;;;;;5105556;28;20446;-82
2022/09/16 08:51:44;;;;;;;5.17;4.67;;;14.50;99.90;;;;;;5104486;28;20462;-84
2022/09/16 08:54:18;;;;;;;5.53;5.13;;;14.60;99.90;;;;;;5103443;28;20489;-84
2022/09/16 08:56:48;;;;;;;7.77;6.20;;;14.70;99.90;;;;;;5106930;28;20510;-83
2022/09/16 08:59:22;;;;;;;7.17;5.93;;;14.90;99.90;;;;;;5103133;28;20466;-86
2022/09/16 09:01:52;;;;;;;5.63;5.10;;;15.10;99.90;;;;;;5101681;28;20957;-84
2022/09/16 09:04:19;;;;;;;4.00;3.70;;;15.30;99.90;;;;;;5092527;28;20450;-85
2022/09/16 09:06:56;;;;;;;5.10;4.73;;;15.50;99.90;;;;;;5095952;28;20527;-83
2022/09/16 09:09:50;;;;;;;6.53;5.93;;;15.60;99.90;;;;;;5093532;28;20464;-85
2022/09/16 09:12:28;;;;;;;8.77;5.33;;;15.60;99.90;;;;;;5093332;28;20456;-84
2022/09/16 09:15:13;;;;;;;5.37;5.00;;;15.30;99.90;;;;;;5092964;28;20462;-84
2022/09/16 09:17:53;;;;;;;5.40;4.90;;;15.30;99.90;;;;;;5100110;28;20898;-84
2022/09/16 09:20:33;;;;;;;5.40;5.00;;;15.40;99.90;;;;;;5104431;28;20529;-82
2022/09/16 09:23:22;;;;;;;5.77;5.20;;;15.40;99.90;;;;;;5103868;28;20441;-83
2022/09/16 09:25:58;;;;;;;6.03;4.50;;;15.20;99.90;;;;;;5087563;28;20457;-83
2022/09/16 09:28:52;;;;;;;4.27;3.80;;;15.00;99.90;;;;;;5101068;28;20464;-85
2022/09/16 09:31:25;;;;;;;4.17;3.73;;;15.10;99.90;;;;;;5102154;27;20483;-82
2022/09/16 09:34:02;;;;;;;4.20;3.90;;;15.30;99.90;;;;;;5101174;28;20483;-85
2022/09/16 09:36:44;;;;;;;6.53;4.47;;;15.50;99.90;;;;;;5099742;28;20553;-86
2022/09/16 09:39:49;;;;;;;4.03;3.60;;;15.90;99.90;;;;;;5104296;28;20453;-84
2022/09/16 09:42:22;;;;;;;4.10;3.80;;;16.10;99.90;;;;;;5084246;28;20619;-83
2022/09/16 09:45:00;;;;;;;3.87;3.57;;;16.10;99.90;;;;;;5105051;27;20554;-83
2022/09/16 09:47:37;;;;;;;4.87;3.40;;;16.00;99.90;;;;;;5103763;28;20540;-83
2022/09/16 09:50:19;;;;;;;4.17;3.77;;;15.90;99.90;;;;;;5105070;27;20460;-84
2022/09/16 09:52:54;;;;;;;3.30;3.00;;;15.80;99.90;;;;;;5096846;28;20531;-86
2022/09/16 09:55:24;;;;;;;4.30;3.90;;;15.50;99.90;;;;;;5097512;28;20463;-84
2022/09/16 09:58:02;;;;;;;4.90;4.13;;;15.40;99.90;;;;;;5101728;28;20825;-85
2022/09/16 10:00:31;;;;;;;4.30;3.47;;;15.30;99.90;;;;;;5103286;28;20452;-84
2022/09/16 10:03:05;;;;;;;3.90;3.50;;;15.20;99.90;;;;;;5102601;28;21123;-81
2022/09/16 10:05:32;;;;;;;4.10;3.70;;;15.20;99.90;;;;;;5104229;28;20460;-81
2022/09/16 10:08:03;;;;;;;5.23;4.10;;;15.30;99.90;;;;;;5098710;28;21067;-83
2022/09/16 10:10:34;;;;;;;3.47;2.97;;;15.50;99.90;;;;;;5101060;28;20530;-80
2022/09/16 10:13:08;;;;;;;3.93;3.63;;;15.60;99.90;;;;;;5090691;28;20485;-80
2022/09/16 10:15:37;;;;;;;5.90;4.47;;;15.80;99.90;;;;;;5098755;28;20468;-80
2022/09/16 10:18:12;;;;;;;5.47;4.17;;;16.00;99.90;;;;;;5100116;28;21116;-82
2022/09/16 10:20:43;;;;;;;4.17;3.80;;;16.30;99.90;;;;;;5105153;28;20452;-82
2022/09/16 10:23:13;;;;;;;4.20;3.77;;;16.90;99.90;;;;;;5103192;28;20948;-81
2022/09/16 10:25:41;;;;;;;4.10;3.80;;;17.50;99.90;;;;;;5104146;28;20458;-80
2022/09/16 10:28:20;;;;;;;5.27;4.10;;;17.60;99.90;;;;;;5100835;28;20511;-79
2022/09/16 10:30:51;;;;;;;4.00;3.60;;;17.50;99.90;;;;;;5094373;28;20496;-82
2022/09/16 10:33:24;;;;;;;4.43;4.13;;;17.90;99.90;;;;;;5096391;27;20981;-84
2022/09/16 10:35:57;;;;;;;4.87;4.57;;;17.90;99.90;;;;;;5099857;27;20462;-83
2022/09/16 10:38:27;;;;;;;4.63;4.10;;;18.00;99.90;;;;;;5102238;28;21040;-80
2022/09/16 10:40:56;;;;;;;6.00;4.40;;;18.10;99.90;;;;;;5093254;28;20911;-80
2022/09/16 10:43:25;;;;;;;4.77;4.37;;;18.10;99.90;;;;;;5093140;28;20470;-82
2022/09/16 10:45:54;;;;;;;6.70;5.47;;;18.10;99.90;;;;;;5109738;27;20466;-83
2022/09/16 10:48:26;;;;;;;11.97;5.87;;;17.80;99.90;;;;;;5090690;28;20477;-80
2022/09/16 10:50:55;;;;;;;6.83;5.90;;;17.50;99.90;;;;;;5092621;28;21024;-81
2022/09/16 10:53:27;;;;;;;5.17;4.77;;;17.20;99.90;;;;;;5115492;27;20480;-79
2022/09/16 10:55:58;;;;;;;6.90;5.50;;;17.00;99.90;;;;;;5093852;28;20458;-80
2022/09/16 10:58:26;;;;;;;6.87;5.17;;;16.70;99.90;;;;;;5102953;28;20514;-81
2022/09/16 11:01:05;;;;;;;5.33;4.93;;;16.40;99.90;;;;;;5096337;28;20534;-82
2022/09/16 11:04:08;;;;;;;5.80;5.20;;;16.10;99.90;;;;;;5096327;28;20474;-81
2022/09/16 11:06:49;;;;;;;7.70;7.00;;;15.90;99.90;;;;;;5090829;28;21241;-81
2022/09/16 11:09:25;;;;;;;9.77;8.47;;;15.80;99.90;;;;;;5091345;28;20543;-80
2022/09/16 11:12:04;;;;;;;11.27;10.27;;;15.50;99.90;;;;;;5096060;28;20900;-81
2022/09/16 11:14:45;;;;;;;9.00;8.10;;;15.20;99.90;;;;;;5087930;28;20487;-83
2022/09/16 11:17:31;;;;;;;10.23;9.23;;;15.10;99.90;;;;;;5096527;28;20461;-82
2022/09/16 11:20:23;;;;;;;10.73;9.63;;;14.90;99.90;;;;;;5089625;28;20449;-80
2022/09/16 11:23:02;;;;;;;10.00;9.00;;;14.70;99.90;;;;;;5085880;28;20454;-81
2022/09/16 11:25:39;;;;;;;10.33;9.33;;;14.60;99.90;;;;;;5092026;28;20524;-80
2022/09/16 11:28:35;;;;;;;8.93;8.03;;;14.60;99.90;;;;;;5097143;28;20460;-81
2022/09/16 11:31:12;;;;;;;10.00;9.00;;;14.60;99.90;;;;;;5091187;28;20541;-82
2022/09/16 11:33:48;;;;;;;13.50;9.77;;;14.70;99.90;;;;;;5100099;28;20974;-81
2022/09/16 11:36:38;;;;;;;10.40;9.50;;;15.00;99.90;;;;;;5103725;28;20462;-80
2022/09/16 11:39:21;;;;;;;10.57;9.47;;;15.30;99.90;;;;;;5104054;28;20540;-81
2022/09/16 11:41:57;;;;;;;9.10;8.20;;;15.50;99.90;;;;;;5100434;28;21142;-80
2022/09/16 11:44:38;;;;;;;52.13;47.13;;;15.50;99.90;;;;;;5094569;28;20476;-82
2022/09/16 11:47:25;;;;;;;13.23;11.93;;;15.70;99.90;;;;;;5096985;28;20458;-81
2022/09/16 11:50:08;;;;;;;33.90;30.33;;;15.90;99.90;;;;;;5102470;28;21022;-83
2022/09/16 11:53:09;;;;;;;16.50;14.93;;;16.00;99.90;;;;;;5116647;28;20829;-81
2022/09/16 11:55:47;;;;;;;11.17;10.03;;;16.10;99.90;;;;;;5108014;28;21112;-81
2022/09/16 11:58:25;;;;;;;11.53;10.43;;;16.40;99.90;;;;;;5095221;28;20443;-83
2022/09/16 12:00:56;;;;;;;12.87;10.80;;;16.70;99.90;;;;;;5098542;28;20599;-83
2022/09/16 12:03:34;;;;;;;11.00;9.47;;;16.90;99.90;;;;;;5107255;28;20446;-81
2022/09/16 12:06:10;;;;;;;13.73;12.37;;;17.10;99.90;;;;;;5104558;27;20981;-81
2022/09/16 12:08:48;;;;;;;10.30;9.50;;;17.20;99.90;;;;;;5104291;28;20465;-81
2022/09/16 12:11:22;;;;;;;10.40;9.40;;;17.40;99.90;;;;;;5106765;28;20449;-83
2022/09/16 12:13:52;;;;;;;13.27;11.57;;;17.90;99.90;;;;;;5103347;28;20505;-80
2022/09/16 12:16:29;;;;;;;11.40;10.23;;;18.30;99.90;;;;;;5098003;28;20442;-80
2022/09/16 12:19:00;;;;;;;10.67;9.67;;;18.10;99.90;;;;;;5106348;28;20502;-81
2022/09/16 12:21:34;;;;;;;10.67;9.57;;;17.70;99.90;;;;;;5102481;28;20994;-81
2022/09/16 12:24:06;;;;;;;11.90;10.27;;;17.50;99.90;;;;;;5099620;28;20959;-80
2022/09/16 12:26:39;;;;;;;11.23;10.23;;;17.60;99.90;;;;;;5094436;28;20462;-81
2022/09/16 12:29:12;;;;;;;12.13;10.93;;;17.80;99.90;;;;;;5100364;28;20523;-81
2022/09/16 12:31:43;;;;;;;10.90;9.77;;;17.90;99.90;;;;;;5105491;28;20497;-81
2022/09/16 12:34:15;;;;;;;9.17;8.27;;;18.10;99.90;;;;;;5107997;27;21191;-81
2022/09/16 12:36:47;;;;;;;9.23;8.03;;;18.00;99.90;;;;;;5098701;28;20486;-80
2022/09/16 12:39:14;;;;;;;10.40;9.30;;;18.00;99.90;;;;;;5101327;28;20450;-80
2022/09/16 12:42:17;;;;;;;10.33;9.43;;;18.00;99.90;;;;;;5095981;28;21082;-80
2022/09/16 12:45:07;;;;;;;11.13;9.17;;;18.00;99.90;;;;;;5099083;28;20451;-81
2022/09/16 12:48:02;;;;;;;10.80;9.17;;;17.80;99.90;;;;;;5092118;28;20457;-80
2022/09/16 12:50:59;;;;;;;9.50;8.07;;;17.50;99.90;;;;;;5093025;28;20500;-80
2022/09/16 12:53:49;;;;;;;13.50;9.27;;;17.50;99.90;;;;;;5089937;28;20500;-79
2022/09/16 12:56:31;;;;;;;10.77;9.77;;;17.30;99.90;;;;;;5092106;28;20532;-81
2022/09/16 12:59:31;;;;;;;11.10;10.00;;;17.30;99.90;;;;;;5098770;28;20494;-80
2022/09/16 13:02:03;;;;;;;9.73;8.93;;;17.10;99.90;;;;;;5094681;28;20890;-80
2022/09/16 13:04:36;;;;;;;14.97;9.90;;;16.90;99.90;;;;;;5093889;27;20961;-80
2022/09/16 13:07:05;;;;;;;10.67;9.70;;;16.80;99.90;;;;;;5100224;27;20590;-80
2022/09/16 13:09:37;;;;;;;9.53;8.57;;;16.80;99.90;;;;;;5095904;28;20466;-81
2022/09/16 13:12:07;;;;;;;9.53;8.63;;;16.90;99.90;;;;;;5094294;27;20620;-81